createdAt,value
2024-01-12T00:00:20.447Z,43.70
2024-01-12T00:00:53.129Z,48.90
2024-01-12T00:01:25.798Z,44.00
2024-01-12T00:01:58.553Z,45.20
2024-01-12T00:02:31.330Z,44.20
2024-01-12T00:03:04.099Z,45.60
2024-01-12T00:03:36.806Z,44.60
2024-01-12T00:04:09.513Z,51.00
2024-01-12T00:04:42.198Z,47.50
2024-01-12T00:05:15.110Z,46.70
2024-01-12T00:05:41.446Z,47.20
2024-01-12T00:06:14.234Z,47.60
2024-01-12T00:06:47.013Z,49.20
2024-01-12T00:07:19.862Z,51.60
2024-01-12T00:07:52.552Z,48.90
2024-01-12T00:08:25.239Z,49.00
2024-01-12T00:08:58.009Z,52.40
2024-01-12T00:09:30.836Z,47.30
2024-01-12T00:10:03.469Z,49.70
2024-01-12T00:10:36.140Z,51.90
2024-01-12T00:11:08.814Z,45.40
2024-01-12T00:11:41.555Z,50.70
2024-01-12T00:12:14.247Z,50.60
2024-01-12T00:12:46.912Z,54.10
2024-01-12T00:13:19.586Z,50.60
2024-01-12T00:13:52.244Z,50.30
2024-01-12T00:14:24.949Z,50.70
2024-01-12T00:14:57.740Z,51.20
2024-01-12T00:15:30.495Z,58.80
2024-01-12T00:16:03.140Z,47.60
2024-01-12T00:16:35.810Z,54.60
2024-01-12T00:17:08.486Z,50.30
2024-01-12T00:17:41.218Z,51.60
2024-01-12T00:18:13.994Z,46.50
2024-01-12T00:18:46.789Z,49.30
2024-01-12T00:19:19.463Z,52.00
2024-01-12T00:19:52.125Z,56.20
2024-01-12T00:20:24.842Z,48.80
2024-01-12T00:20:57.594Z,54.40
2024-01-12T00:21:30.324Z,53.40
2024-01-12T00:22:02.989Z,53.50
2024-01-12T00:22:35.643Z,55.50
2024-01-12T00:23:08.313Z,53.20
2024-01-12T00:23:41.145Z,52.30
2024-01-12T00:24:13.828Z,51.60
2024-01-12T00:24:46.504Z,56.60
2024-01-12T00:25:19.176Z,59.10
2024-01-12T00:25:51.852Z,52.50
2024-01-12T00:26:24.537Z,53.90
2024-01-12T00:26:57.238Z,55.10
2024-01-12T00:27:29.917Z,58.10
2024-01-12T00:28:02.590Z,57.80
2024-01-12T00:28:35.286Z,56.40
2024-01-12T00:29:07.923Z,53.50
2024-01-12T00:29:40.635Z,58.80
2024-01-12T00:30:13.370Z,54.20
2024-01-12T00:30:46.065Z,58.20
2024-01-12T00:31:18.713Z,57.90
2024-01-12T00:31:51.405Z,53.40
2024-01-12T00:32:24.125Z,59.00
2024-01-12T00:32:56.911Z,56.10
2024-01-12T00:33:29.758Z,59.50
2024-01-12T00:34:02.638Z,58.10
2024-01-12T00:34:35.356Z,53.90
2024-01-12T00:35:08.007Z,59.30
2024-01-12T00:35:40.763Z,55.60
2024-01-12T00:36:13.425Z,57.80
2024-01-12T00:36:46.097Z,58.80
2024-01-12T00:37:18.760Z,57.10
2024-01-12T00:37:51.444Z,57.40
2024-01-12T00:38:24.129Z,59.70
2024-01-12T00:38:56.855Z,54.30
2024-01-12T00:39:29.521Z,58.60
2024-01-12T00:40:02.201Z,55.10
2024-01-12T00:40:34.873Z,56.40
2024-01-12T00:41:07.559Z,61.40
2024-01-12T00:41:40.245Z,56.70
2024-01-12T00:42:12.911Z,54.30
2024-01-12T00:42:45.587Z,52.20
2024-01-12T00:43:18.264Z,55.80
2024-01-12T00:43:50.944Z,58.20
2024-01-12T00:44:23.658Z,57.50
2024-01-12T00:44:56.430Z,57.40
2024-01-12T00:45:29.156Z,62.10
2024-01-12T00:46:01.827Z,60.20
2024-01-12T00:46:34.529Z,59.70
2024-01-12T00:47:07.186Z,55.40
2024-01-12T00:47:39.915Z,57.10
2024-01-12T00:48:12.716Z,57.70
2024-01-12T00:48:45.536Z,58.70
2024-01-12T00:49:18.346Z,56.60
2024-01-12T00:49:51.068Z,55.50
2024-01-12T00:50:23.773Z,60.50
2024-01-12T00:50:56.504Z,52.50
2024-01-12T00:51:29.213Z,56.60
2024-01-12T00:52:01.889Z,50.80
2024-01-12T00:52:34.546Z,51.90
2024-01-12T00:53:07.244Z,52.80
2024-01-12T00:53:38.352Z,58.40
2024-01-12T00:54:10.991Z,59.40
2024-01-12T00:54:43.670Z,56.20
2024-01-12T00:55:16.360Z,54.10
2024-01-12T00:55:49.089Z,58.20
2024-01-12T00:56:21.799Z,58.30
2024-01-12T00:56:54.544Z,51.10
2024-01-12T00:57:27.214Z,55.30
2024-01-12T00:57:59.869Z,55.50
2024-01-12T00:58:32.539Z,61.10
2024-01-12T00:59:05.209Z,56.80
2024-01-12T00:59:37.881Z,59.00
2024-01-12T01:00:10.580Z,54.30
2024-01-12T01:00:43.240Z,58.50
2024-01-12T01:01:15.946Z,56.90
2024-01-12T01:01:50.463Z,61.30
2024-01-12T01:02:18.038Z,59.00
2024-01-12T01:02:50.896Z,59.00
2024-01-12T01:03:23.625Z,65.10
2024-01-12T01:03:56.357Z,57.10
2024-01-12T01:04:29.027Z,57.20
2024-01-12T01:05:01.752Z,62.50
2024-01-12T01:05:34.469Z,54.00
2024-01-12T01:06:07.248Z,55.50
2024-01-12T01:06:33.894Z,55.70
2024-01-12T01:07:06.626Z,62.00
2024-01-12T01:07:39.284Z,60.30
2024-01-12T01:08:11.976Z,56.30
2024-01-12T01:08:44.747Z,57.60
2024-01-12T01:09:17.418Z,51.70
2024-01-12T01:09:50.082Z,58.10
2024-01-12T01:10:22.750Z,59.30
2024-01-12T01:10:55.450Z,62.50
2024-01-12T01:11:28.165Z,56.10
2024-01-12T01:12:00.838Z,61.30
2024-01-12T01:12:33.505Z,60.80
2024-01-12T01:13:06.166Z,59.80
2024-01-12T01:13:38.833Z,61.80
2024-01-12T01:14:11.529Z,63.30
2024-01-12T01:14:44.262Z,57.40
2024-01-12T01:15:16.958Z,63.70
2024-01-12T01:15:49.640Z,58.90
2024-01-12T01:16:22.323Z,61.80
2024-01-12T01:16:55.098Z,60.30
2024-01-12T01:17:27.875Z,63.80
2024-01-12T01:18:00.768Z,61.10
2024-01-12T01:18:36.989Z,59.50
2024-01-12T01:19:03.918Z,56.50
2024-01-12T01:19:36.751Z,58.90
2024-01-12T01:20:09.441Z,56.70
2024-01-12T01:20:42.153Z,63.60
2024-01-12T01:21:14.793Z,58.80
2024-01-12T01:21:47.486Z,63.00
2024-01-12T01:22:20.149Z,55.90
2024-01-12T01:22:52.797Z,60.20
2024-01-12T01:23:25.529Z,62.40
2024-01-12T01:23:58.458Z,56.30
2024-01-12T01:24:31.176Z,61.20
2024-01-12T01:25:03.874Z,57.90
2024-01-12T01:25:36.535Z,64.60
2024-01-12T01:26:09.211Z,61.50
2024-01-12T01:26:41.928Z,63.20
2024-01-12T01:27:14.583Z,59.90
2024-01-12T01:27:47.252Z,61.00
2024-01-12T01:28:19.931Z,61.20
2024-01-12T01:28:52.602Z,59.20
2024-01-12T01:29:25.329Z,59.40
2024-01-12T01:29:58.063Z,59.20
2024-01-12T01:30:30.795Z,56.60
2024-01-12T01:31:03.521Z,64.50
2024-01-12T01:31:36.238Z,63.90
2024-01-12T01:32:08.901Z,61.10
2024-01-12T01:32:41.784Z,61.20
2024-01-12T01:33:08.140Z,63.50
2024-01-12T01:33:40.964Z,58.40
2024-01-12T01:34:14.106Z,63.00
2024-01-12T01:34:40.504Z,57.50
2024-01-12T01:35:13.282Z,60.30
2024-01-12T01:35:46.014Z,62.60
2024-01-12T01:36:18.698Z,55.90
2024-01-12T01:36:51.362Z,55.00
2024-01-12T01:37:24.032Z,59.20
2024-01-12T01:37:56.694Z,64.80
2024-01-12T01:38:29.419Z,57.30
2024-01-12T01:39:02.178Z,57.30
2024-01-12T01:39:34.854Z,55.90
2024-01-12T01:40:07.553Z,57.20
2024-01-12T01:40:40.216Z,55.90
2024-01-12T01:41:12.932Z,57.40
2024-01-12T01:41:45.704Z,58.80
2024-01-12T01:42:18.365Z,61.00
2024-01-12T01:42:51.025Z,54.90
2024-01-12T01:43:23.716Z,56.10
2024-01-12T01:43:56.354Z,55.60
2024-01-12T01:44:29.054Z,57.10
2024-01-12T01:45:01.767Z,58.00
2024-01-12T01:45:34.466Z,55.20
2024-01-12T01:46:07.132Z,57.70
2024-01-12T01:46:39.796Z,56.30
2024-01-12T01:47:12.534Z,55.10
2024-01-12T01:47:45.276Z,55.80
2024-01-12T01:48:17.982Z,54.00
2024-01-12T01:48:50.647Z,57.40
2024-01-12T01:49:21.728Z,57.10
2024-01-12T01:49:54.416Z,52.20
2024-01-12T01:50:27.124Z,52.30
2024-01-12T01:50:59.856Z,50.70
2024-01-12T01:51:32.526Z,61.10
2024-01-12T01:52:05.199Z,59.60
2024-01-12T01:52:38.040Z,60.40
2024-01-12T01:53:10.716Z,61.40
2024-01-12T01:53:43.435Z,61.50
2024-01-12T01:54:16.095Z,58.50
2024-01-12T01:54:48.777Z,57.00
2024-01-12T01:55:21.458Z,60.80
2024-01-12T01:55:54.136Z,57.80
2024-01-12T01:56:26.848Z,60.40
2024-01-12T01:56:59.633Z,55.00
2024-01-12T01:57:32.330Z,56.60
2024-01-12T01:58:05.007Z,61.50
2024-01-12T01:58:32.044Z,55.70
2024-01-12T01:59:04.722Z,57.20
2024-01-12T01:59:37.431Z,57.90
2024-01-12T02:00:10.123Z,52.20
2024-01-12T02:00:42.790Z,55.30
2024-01-12T02:01:15.482Z,53.80
2024-01-12T02:01:48.166Z,57.20
2024-01-12T02:02:20.844Z,56.10
2024-01-12T02:02:53.591Z,63.50
2024-01-12T02:03:29.240Z,54.90
2024-01-12T02:03:55.822Z,58.90
2024-01-12T02:04:28.505Z,61.20
2024-01-12T02:05:01.191Z,55.30
2024-01-12T02:05:34.076Z,59.50
2024-01-12T02:06:06.912Z,62.40
2024-01-12T02:06:39.768Z,59.30
2024-01-12T02:07:12.506Z,66.80
2024-01-12T02:07:45.190Z,54.00
2024-01-12T02:08:17.906Z,62.00
2024-01-12T02:08:50.709Z,56.30
2024-01-12T02:09:23.398Z,60.50
2024-01-12T02:09:56.106Z,66.10
2024-01-12T02:10:28.771Z,64.10
2024-01-12T02:11:01.439Z,58.40
2024-01-12T02:11:34.159Z,66.10
2024-01-12T02:12:06.822Z,65.60
2024-01-12T02:12:39.504Z,67.90
2024-01-12T02:13:12.184Z,63.60
2024-01-12T02:13:44.870Z,65.10
2024-01-12T02:14:17.569Z,68.40
2024-01-12T02:14:50.283Z,62.20
2024-01-12T02:15:22.933Z,63.90
2024-01-12T02:15:55.693Z,63.80
2024-01-12T02:16:28.346Z,59.90
2024-01-12T02:17:01.033Z,65.40
2024-01-12T02:17:33.752Z,58.60
2024-01-12T02:18:06.555Z,58.00
2024-01-12T02:18:39.333Z,60.40
2024-01-12T02:19:12.133Z,66.60
2024-01-12T02:19:44.929Z,60.90
2024-01-12T02:20:17.738Z,63.60
2024-01-12T02:20:50.602Z,61.30
2024-01-12T02:21:23.307Z,62.40
2024-01-12T02:21:55.984Z,63.90
2024-01-12T02:22:28.652Z,65.50
2024-01-12T02:23:01.316Z,64.20
2024-01-12T02:23:34.008Z,64.10
2024-01-12T02:24:06.709Z,64.70
2024-01-12T02:24:39.536Z,70.40
2024-01-12T02:25:12.217Z,61.00
2024-01-12T02:25:44.940Z,69.50
2024-01-12T02:26:17.631Z,71.50
2024-01-12T02:26:50.307Z,66.10
2024-01-12T02:27:22.980Z,64.30
2024-01-12T02:27:55.672Z,68.60
2024-01-12T02:28:28.340Z,67.30
2024-01-12T02:29:01.011Z,65.00
2024-01-12T02:29:33.761Z,65.10
2024-01-12T02:30:06.621Z,64.50
2024-01-12T02:30:33.025Z,74.90
2024-01-12T02:31:05.797Z,67.90
2024-01-12T02:31:38.442Z,62.90
2024-01-12T02:32:11.112Z,71.30
2024-01-12T02:32:43.790Z,66.90
2024-01-12T02:33:16.558Z,74.10
2024-01-12T02:33:49.522Z,67.50
2024-01-12T02:34:15.800Z,66.40
2024-01-12T02:34:48.489Z,64.80
2024-01-12T02:35:21.192Z,70.90
2024-01-12T02:35:53.981Z,60.10
2024-01-12T02:36:26.710Z,65.80
2024-01-12T02:36:53.365Z,59.50
2024-01-12T02:37:26.039Z,63.70
2024-01-12T02:37:58.703Z,65.70
2024-01-12T02:38:31.380Z,67.50
2024-01-12T02:39:04.088Z,66.50
2024-01-12T02:39:36.734Z,67.30
2024-01-12T02:40:09.419Z,55.60
2024-01-12T02:40:42.086Z,67.20
2024-01-12T02:41:14.963Z,62.00
2024-01-12T02:41:47.680Z,73.90
2024-01-12T02:42:20.314Z,62.70
2024-01-12T02:42:52.990Z,71.30
2024-01-12T02:43:25.660Z,63.80
2024-01-12T02:43:58.337Z,66.40
2024-01-12T02:44:31.043Z,66.70
2024-01-12T02:45:02.235Z,68.30
2024-01-12T02:45:34.957Z,65.00
2024-01-12T02:46:07.621Z,67.80
2024-01-12T02:46:34.218Z,76.10
2024-01-12T02:47:06.892Z,62.50
2024-01-12T02:47:39.920Z,62.10
2024-01-12T02:48:12.811Z,61.90
2024-01-12T02:48:45.527Z,65.80
2024-01-12T02:49:18.198Z,67.50
2024-01-12T02:49:50.886Z,66.60
2024-01-12T02:50:23.665Z,59.10
2024-01-12T02:50:56.445Z,65.30
2024-01-12T02:51:29.172Z,71.40
2024-01-12T02:52:01.834Z,73.20
2024-01-12T02:52:34.502Z,64.80
2024-01-12T02:53:07.172Z,67.40
2024-01-12T02:53:39.961Z,69.90
2024-01-12T02:54:10.938Z,68.20
2024-01-12T02:54:46.533Z,63.60
2024-01-12T02:55:14.725Z,70.40
2024-01-12T02:55:47.398Z,69.30
2024-01-12T02:56:20.220Z,71.60
2024-01-12T02:56:52.931Z,67.10
2024-01-12T02:57:25.792Z,64.40
2024-01-12T02:57:58.600Z,64.10
2024-01-12T02:58:31.270Z,66.00
2024-01-12T02:59:03.954Z,67.50
2024-01-12T02:59:36.637Z,71.80
2024-01-12T03:00:09.448Z,65.00
2024-01-12T03:00:42.173Z,66.10
2024-01-12T03:01:14.877Z,68.10
2024-01-12T03:01:47.513Z,69.40
2024-01-12T03:02:20.214Z,67.70
2024-01-12T03:02:53.176Z,71.20
2024-01-12T03:03:26.086Z,62.20
2024-01-12T03:03:58.798Z,69.80
2024-01-12T03:04:31.461Z,65.80
2024-01-12T03:05:04.224Z,75.90
2024-01-12T03:05:37.003Z,72.00
2024-01-12T03:06:09.901Z,75.10
2024-01-12T03:06:42.732Z,70.40
2024-01-12T03:07:15.475Z,66.90
2024-01-12T03:07:48.157Z,75.00
2024-01-12T03:08:20.860Z,64.50
2024-01-12T03:08:53.577Z,71.80
2024-01-12T03:09:26.235Z,71.30
2024-01-12T03:09:58.913Z,68.90
2024-01-12T03:10:31.613Z,66.60
2024-01-12T03:11:04.288Z,75.70
2024-01-12T03:11:35.434Z,75.10
2024-01-12T03:12:08.162Z,69.30
2024-01-12T03:12:40.810Z,78.10
2024-01-12T03:13:13.486Z,80.20
2024-01-12T03:13:46.159Z,71.00
2024-01-12T03:14:18.908Z,89.00
2024-01-12T03:14:51.655Z,75.50
2024-01-12T03:15:24.302Z,76.00
2024-01-12T03:15:56.969Z,74.40
2024-01-12T03:16:29.686Z,66.40
2024-01-12T03:17:02.348Z,70.30
2024-01-12T03:17:35.158Z,72.50
2024-01-12T03:18:07.937Z,73.10
2024-01-12T03:18:40.730Z,71.90
2024-01-12T03:19:13.606Z,71.40
2024-01-12T03:19:46.341Z,78.70
2024-01-12T03:20:19.061Z,70.40
2024-01-12T03:20:51.807Z,66.90
2024-01-12T03:21:24.508Z,68.10
2024-01-12T03:21:57.175Z,67.00
2024-01-12T03:22:29.829Z,76.40
2024-01-12T03:23:02.493Z,75.80
2024-01-12T03:23:35.342Z,77.00
2024-01-12T03:24:08.016Z,75.50
2024-01-12T03:24:40.881Z,75.90
2024-01-12T03:25:13.557Z,73.30
2024-01-12T03:25:46.226Z,71.60
2024-01-12T03:26:18.996Z,75.50
2024-01-12T03:26:51.693Z,71.70
2024-01-12T03:27:24.380Z,68.50
2024-01-12T03:27:57.054Z,71.40
2024-01-12T03:28:29.736Z,69.80
2024-01-12T03:29:02.429Z,65.10
2024-01-12T03:29:35.167Z,60.90
2024-01-12T03:30:07.958Z,60.80
2024-01-12T03:30:40.704Z,64.80
2024-01-12T03:31:14.619Z,61.90
2024-01-12T03:31:42.082Z,60.10
2024-01-12T03:32:14.787Z,67.20
2024-01-12T03:32:47.638Z,69.70
2024-01-12T03:33:20.521Z,70.70
2024-01-12T03:33:53.524Z,66.30
2024-01-12T03:34:19.933Z,67.20
2024-01-12T03:34:52.810Z,74.20
2024-01-12T03:35:25.516Z,64.20
2024-01-12T03:35:58.309Z,68.30
2024-01-12T03:36:31.029Z,67.20
2024-01-12T03:36:57.718Z,67.90
2024-01-12T03:37:30.369Z,66.20
2024-01-12T03:38:03.036Z,62.90
2024-01-12T03:38:35.755Z,68.10
2024-01-12T03:39:08.469Z,67.90
2024-01-12T03:39:41.128Z,71.00
2024-01-12T03:40:13.799Z,63.80
2024-01-12T03:40:46.456Z,67.70
2024-01-12T03:41:19.179Z,63.00
2024-01-12T03:41:51.916Z,66.60
2024-01-12T03:42:24.621Z,61.90
2024-01-12T03:42:57.278Z,62.90
2024-01-12T03:43:29.957Z,65.20
2024-01-12T03:44:02.641Z,65.80
2024-01-12T03:44:35.359Z,61.40
2024-01-12T03:45:08.094Z,67.80
2024-01-12T03:45:40.772Z,63.20
2024-01-12T03:46:13.452Z,60.80
2024-01-12T03:46:46.159Z,66.10
2024-01-12T03:47:18.844Z,67.50
2024-01-12T03:47:51.707Z,58.80
2024-01-12T03:48:24.576Z,59.40
2024-01-12T03:48:57.419Z,63.90
2024-01-12T03:49:30.182Z,65.80
2024-01-12T03:49:56.726Z,58.10
2024-01-12T03:50:29.432Z,58.10
2024-01-12T03:51:02.314Z,56.70
2024-01-12T03:51:35.039Z,54.30
2024-01-12T03:52:14.621Z,56.50
2024-01-12T03:52:33.721Z,52.20
2024-01-12T03:52:59.895Z,57.40
2024-01-12T03:53:32.601Z,58.20
2024-01-12T03:54:05.318Z,56.20
2024-01-12T03:54:38.168Z,57.90
2024-01-12T03:55:10.867Z,57.50
2024-01-12T03:55:43.526Z,54.20
2024-01-12T03:56:16.252Z,52.00
2024-01-12T03:56:48.952Z,54.60
2024-01-12T03:57:21.600Z,50.60
2024-01-12T03:57:54.280Z,48.20
2024-01-12T03:58:26.961Z,47.00
2024-01-12T03:58:59.610Z,51.90
2024-01-12T03:59:32.334Z,53.20
2024-01-12T04:00:05.040Z,51.20
2024-01-12T04:00:37.734Z,48.80
2024-01-12T04:01:10.393Z,46.20
2024-01-12T04:01:43.088Z,44.00
2024-01-12T04:02:15.787Z,45.00
2024-01-12T04:02:48.549Z,43.80
2024-01-12T04:03:21.290Z,45.20
2024-01-12T04:03:54.026Z,45.20
2024-01-12T04:04:26.685Z,48.30
2024-01-12T04:04:59.384Z,46.80
2024-01-12T04:05:32.123Z,52.00
2024-01-12T04:06:04.909Z,49.90
2024-01-12T04:06:37.726Z,49.70
2024-01-12T04:07:10.547Z,46.90
2024-01-12T04:07:43.241Z,48.30
2024-01-12T04:08:15.983Z,44.10
2024-01-12T04:08:48.783Z,44.70
2024-01-12T04:09:21.448Z,47.70
2024-01-12T04:09:54.255Z,47.80
2024-01-12T04:10:26.934Z,49.30
2024-01-12T04:10:59.604Z,46.90
2024-01-12T04:11:32.361Z,53.30
2024-01-12T04:12:05.243Z,52.00
2024-01-12T04:12:37.933Z,53.60
2024-01-12T04:13:10.602Z,50.00
2024-01-12T04:13:43.270Z,54.40
2024-01-12T04:14:16.006Z,54.90
2024-01-12T04:14:48.730Z,52.60
2024-01-12T04:15:21.374Z,53.50
2024-01-12T04:15:54.047Z,52.90
2024-01-12T04:16:26.727Z,50.60
2024-01-12T04:16:59.391Z,58.50
2024-01-12T04:17:32.149Z,60.70
2024-01-12T04:18:04.990Z,59.70
2024-01-12T04:18:37.927Z,54.60
2024-01-12T04:19:10.733Z,57.00
2024-01-12T04:19:43.580Z,54.10
2024-01-12T04:20:16.354Z,54.70
2024-01-12T04:20:49.151Z,57.50
2024-01-12T04:21:21.894Z,56.90
2024-01-12T04:21:54.558Z,54.50
2024-01-12T04:22:27.253Z,57.80
2024-01-12T04:22:59.906Z,56.00
2024-01-12T04:23:32.637Z,56.00
2024-01-12T04:24:05.363Z,63.80
2024-01-12T04:24:31.984Z,65.40
2024-01-12T04:25:04.644Z,54.90
2024-01-12T04:25:37.312Z,57.00
2024-01-12T04:26:10.027Z,53.80
2024-01-12T04:26:42.837Z,56.50
2024-01-12T04:27:15.630Z,58.60
2024-01-12T04:27:48.346Z,62.00
2024-01-12T04:28:21.022Z,56.60
2024-01-12T04:28:53.688Z,57.20
2024-01-12T04:29:26.368Z,57.90
2024-01-12T04:29:59.105Z,60.20
2024-01-12T04:30:31.775Z,60.90
2024-01-12T04:31:04.816Z,56.60
2024-01-12T04:31:37.555Z,56.50
2024-01-12T04:32:10.217Z,54.60
2024-01-12T04:32:43.013Z,57.60
2024-01-12T04:33:15.892Z,59.20
2024-01-12T04:33:48.931Z,58.10
2024-01-12T04:34:19.856Z,55.70
2024-01-12T04:34:52.616Z,58.80
2024-01-12T04:35:25.319Z,51.80
2024-01-12T04:35:58.133Z,54.40
2024-01-12T04:36:30.795Z,62.50
2024-01-12T04:37:03.465Z,56.80
2024-01-12T04:37:36.175Z,51.90
2024-01-12T04:38:08.858Z,58.20
2024-01-12T04:38:41.557Z,53.50
2024-01-12T04:39:14.238Z,58.90
2024-01-12T04:39:46.922Z,58.80
2024-01-12T04:40:19.606Z,55.50
2024-01-12T04:40:52.257Z,53.90
2024-01-12T04:41:24.968Z,56.60
2024-01-12T04:41:57.770Z,48.70
2024-01-12T04:42:30.515Z,54.30
2024-01-12T04:43:03.191Z,51.70
2024-01-12T04:43:35.856Z,54.20
2024-01-12T04:44:08.530Z,52.30
2024-01-12T04:44:41.240Z,51.50
2024-01-12T04:45:13.908Z,49.30
2024-01-12T04:45:46.585Z,49.50
2024-01-12T04:46:19.244Z,51.30
2024-01-12T04:46:51.925Z,54.80
2024-01-12T04:47:24.603Z,54.10
2024-01-12T04:47:57.482Z,60.10
2024-01-12T04:48:30.428Z,55.40
2024-01-12T04:49:03.247Z,53.30
2024-01-12T04:49:35.973Z,45.20
2024-01-12T04:50:08.642Z,49.30
2024-01-12T04:50:41.325Z,42.50
2024-01-12T04:51:13.979Z,46.90
2024-01-12T04:51:46.646Z,47.00
2024-01-12T04:52:19.326Z,44.50
2024-01-12T04:52:52.002Z,46.40
2024-01-12T04:53:25.768Z,45.90
2024-01-12T04:53:52.206Z,45.10
2024-01-12T04:54:24.879Z,43.70
2024-01-12T04:54:55.983Z,43.70
2024-01-12T04:55:28.666Z,46.90
2024-01-12T04:56:01.333Z,45.70
2024-01-12T04:56:34.016Z,45.90
2024-01-12T04:57:06.716Z,43.90
2024-01-12T04:57:39.406Z,49.40
2024-01-12T04:58:12.072Z,48.40
2024-01-12T04:58:44.752Z,41.70
2024-01-12T04:59:17.457Z,45.90
2024-01-12T04:59:50.199Z,46.20
2024-01-12T05:00:21.245Z,40.10
2024-01-12T05:00:54.005Z,42.00
2024-01-12T05:01:26.744Z,45.40
2024-01-12T05:01:59.412Z,48.40
2024-01-12T05:02:32.146Z,42.10
2024-01-12T05:03:04.923Z,41.60
2024-01-12T05:03:37.710Z,45.10
2024-01-12T05:04:10.470Z,48.20
2024-01-12T05:04:43.185Z,46.00
2024-01-12T05:05:15.944Z,45.50
2024-01-12T05:05:48.809Z,44.00
2024-01-12T05:06:21.710Z,48.60
2024-01-12T05:06:54.462Z,43.10
2024-01-12T05:07:27.134Z,48.00
2024-01-12T05:07:59.847Z,48.90
2024-01-12T05:08:32.495Z,41.80
2024-01-12T05:09:05.233Z,45.40
2024-01-12T05:09:38.108Z,45.40
2024-01-12T05:10:10.816Z,47.50
2024-01-12T05:10:43.517Z,46.40
2024-01-12T05:11:16.168Z,44.70
2024-01-12T05:11:48.859Z,41.40
2024-01-12T05:12:21.497Z,41.70
2024-01-12T05:12:54.170Z,47.90
2024-01-12T05:13:26.830Z,45.30
2024-01-12T05:13:59.517Z,48.70
2024-01-12T05:14:32.201Z,44.20
2024-01-12T05:15:04.932Z,46.20
2024-01-12T05:15:37.593Z,44.10
2024-01-12T05:16:10.275Z,45.30
2024-01-12T05:16:42.928Z,48.10
2024-01-12T05:17:15.627Z,44.20
2024-01-12T05:17:48.553Z,47.20
2024-01-12T05:18:21.393Z,46.00
2024-01-12T05:18:54.372Z,44.40
2024-01-12T05:19:25.319Z,41.30
2024-01-12T05:19:58.018Z,43.70
2024-01-12T05:20:30.769Z,38.40
2024-01-12T05:21:03.551Z,43.30
2024-01-12T05:21:36.226Z,42.20
2024-01-12T05:22:08.887Z,42.50
2024-01-12T05:22:41.577Z,41.50
2024-01-12T05:23:14.366Z,41.10
2024-01-12T05:23:47.090Z,35.70
2024-01-12T05:24:19.738Z,39.00
2024-01-12T05:24:52.431Z,39.20
2024-01-12T05:25:25.183Z,37.30
2024-01-12T05:25:57.836Z,34.80
2024-01-12T05:26:30.553Z,40.10
2024-01-12T05:27:03.325Z,36.40
2024-01-12T05:27:36.028Z,39.70
2024-01-12T05:28:08.704Z,38.60
2024-01-12T05:28:41.370Z,37.20
2024-01-12T05:29:14.047Z,37.10
2024-01-12T05:29:46.797Z,36.10
2024-01-12T05:30:19.708Z,33.50
2024-01-12T05:30:52.549Z,35.10
2024-01-12T05:31:25.263Z,38.20
2024-01-12T05:31:57.940Z,35.00
2024-01-12T05:32:30.723Z,35.10
2024-01-12T05:33:03.597Z,38.20
2024-01-12T05:33:36.426Z,32.50
2024-01-12T05:34:09.284Z,36.90
2024-01-12T05:34:42.105Z,36.90
2024-01-12T05:35:16.037Z,37.10
2024-01-12T05:35:42.651Z,36.30
2024-01-12T05:36:15.313Z,36.70
2024-01-12T05:36:48.004Z,34.10
2024-01-12T05:37:20.664Z,34.50
2024-01-12T05:37:53.329Z,34.80
2024-01-12T05:38:26.074Z,33.60
2024-01-12T05:38:58.824Z,35.40
2024-01-12T05:39:31.511Z,34.70
2024-01-12T05:40:04.193Z,34.10
2024-01-12T05:40:36.858Z,33.40
2024-01-12T05:41:07.966Z,34.00
2024-01-12T05:41:40.652Z,33.80
2024-01-12T05:42:13.293Z,30.90
2024-01-12T05:42:46.004Z,37.00
2024-01-12T05:43:18.663Z,35.40
2024-01-12T05:43:51.342Z,29.80
2024-01-12T05:44:24.021Z,31.90
2024-01-12T05:44:56.767Z,30.70
2024-01-12T05:45:29.448Z,33.50
2024-01-12T05:46:02.117Z,31.30
2024-01-12T05:46:34.777Z,30.60
2024-01-12T05:47:07.449Z,28.80
2024-01-12T05:47:40.355Z,30.50
2024-01-12T05:48:13.188Z,30.20
2024-01-12T05:48:46.099Z,28.00
2024-01-12T05:49:18.861Z,30.40
2024-01-12T05:49:51.652Z,28.80
2024-01-12T05:50:24.345Z,29.10
2024-01-12T05:50:57.068Z,30.70
2024-01-12T05:51:29.715Z,30.40
2024-01-12T05:52:02.380Z,27.70
2024-01-12T05:52:35.048Z,29.90
2024-01-12T05:53:07.718Z,29.00
2024-01-12T05:53:40.588Z,26.30
2024-01-12T05:54:13.264Z,28.60
2024-01-12T05:54:45.912Z,29.60
2024-01-12T05:55:18.584Z,29.40
2024-01-12T05:55:51.287Z,27.60
2024-01-12T05:56:23.990Z,28.10
2024-01-12T05:56:56.679Z,26.40
2024-01-12T05:57:29.596Z,30.80
2024-01-12T05:58:00.700Z,27.80
2024-01-12T05:58:33.371Z,26.60
2024-01-12T05:59:06.051Z,25.90
2024-01-12T05:59:38.780Z,31.10
2024-01-12T06:00:11.458Z,26.20
2024-01-12T06:00:44.242Z,30.60
2024-01-12T06:01:16.919Z,27.70
2024-01-12T06:01:49.623Z,29.00
2024-01-12T06:02:22.273Z,29.10
2024-01-12T06:02:53.387Z,27.40
2024-01-12T06:03:26.073Z,28.00
2024-01-12T06:03:58.790Z,28.40
2024-01-12T06:04:31.441Z,27.30
2024-01-12T06:05:04.156Z,26.20
2024-01-12T06:05:36.963Z,24.00
2024-01-12T06:06:09.714Z,26.50
2024-01-12T06:06:42.570Z,27.00
2024-01-12T06:07:15.328Z,28.70
2024-01-12T06:07:47.985Z,31.10
2024-01-12T06:08:20.688Z,29.10
2024-01-12T06:08:53.410Z,27.70
2024-01-12T06:09:26.075Z,28.20
2024-01-12T06:09:58.741Z,29.10
2024-01-12T06:10:31.441Z,29.60
2024-01-12T06:11:04.148Z,28.10
2024-01-12T06:11:36.832Z,27.40
2024-01-12T06:12:07.929Z,30.90
2024-01-12T06:12:38.977Z,28.40
2024-01-12T06:13:11.649Z,30.20
2024-01-12T06:13:44.297Z,29.70
2024-01-12T06:14:17.101Z,29.90
2024-01-12T06:14:49.851Z,27.80
2024-01-12T06:15:22.546Z,28.70
2024-01-12T06:15:56.782Z,34.30
2024-01-12T06:16:23.724Z,27.20
2024-01-12T06:16:56.404Z,29.60
2024-01-12T06:17:29.191Z,31.10
2024-01-12T06:18:02.027Z,28.80
2024-01-12T06:18:35.024Z,28.70
2024-01-12T06:19:01.382Z,30.80
2024-01-12T06:19:34.378Z,32.60
2024-01-12T06:20:07.084Z,29.30
2024-01-12T06:20:39.804Z,32.20
2024-01-12T06:21:12.608Z,32.00
2024-01-12T06:21:45.358Z,30.00
2024-01-12T06:22:18.032Z,33.00
2024-01-12T06:22:50.706Z,31.60
2024-01-12T06:23:23.392Z,28.50
2024-01-12T06:23:56.139Z,33.20
2024-01-12T06:24:28.791Z,29.20
2024-01-12T06:25:01.462Z,30.30
2024-01-12T06:25:34.263Z,29.90
2024-01-12T06:26:06.911Z,29.70
2024-01-12T06:26:39.633Z,28.50
2024-01-12T06:27:12.408Z,27.40
2024-01-12T06:27:45.092Z,26.70
2024-01-12T06:28:17.770Z,25.50
2024-01-12T06:28:50.444Z,27.80
2024-01-12T06:29:23.140Z,26.60
2024-01-12T06:29:55.834Z,28.00
2024-01-12T06:30:28.580Z,22.20
2024-01-12T06:30:55.210Z,23.20
2024-01-12T06:31:28.010Z,24.00
2024-01-12T06:32:00.694Z,26.50
2024-01-12T06:32:33.414Z,30.10
2024-01-12T06:33:06.263Z,28.00
2024-01-12T06:33:39.057Z,25.50
2024-01-12T06:34:11.831Z,22.60
2024-01-12T06:34:44.516Z,27.40
2024-01-12T06:35:17.211Z,23.80
2024-01-12T06:35:49.977Z,23.60
2024-01-12T06:36:22.648Z,23.90
2024-01-12T06:36:55.316Z,22.60
2024-01-12T06:37:27.995Z,25.50
2024-01-12T06:38:00.660Z,24.60
2024-01-12T06:38:33.376Z,23.90
2024-01-12T06:39:06.220Z,29.10
2024-01-12T06:39:38.936Z,27.80
2024-01-12T06:40:11.632Z,28.90
2024-01-12T06:40:44.289Z,21.80
2024-01-12T06:41:17.074Z,26.10
2024-01-12T06:41:49.787Z,22.30
2024-01-12T06:42:22.491Z,24.20
2024-01-12T06:42:55.244Z,22.90
2024-01-12T06:43:27.912Z,21.20
2024-01-12T06:44:00.616Z,21.30
2024-01-12T06:44:33.313Z,22.20
2024-01-12T06:45:06.007Z,22.30
2024-01-12T06:45:38.667Z,23.30
2024-01-12T06:46:11.389Z,22.50
2024-01-12T06:46:45.071Z,22.10
2024-01-12T06:47:15.354Z,25.40
2024-01-12T06:47:48.194Z,20.60
2024-01-12T06:48:21.014Z,20.40
2024-01-12T06:48:53.807Z,20.90
2024-01-12T06:49:26.504Z,20.70
2024-01-12T06:49:59.179Z,23.90
2024-01-12T06:50:31.876Z,22.60
2024-01-12T06:51:04.696Z,23.80
2024-01-12T06:51:37.455Z,22.80
2024-01-12T06:52:10.108Z,21.10
2024-01-12T06:52:41.199Z,23.40
2024-01-12T06:53:13.873Z,24.80
2024-01-12T06:53:46.618Z,23.60
2024-01-12T06:54:20.410Z,24.70
2024-01-12T06:54:46.775Z,22.10
2024-01-12T06:55:19.436Z,22.60
2024-01-12T06:55:52.131Z,24.50
2024-01-12T06:56:24.824Z,25.90
2024-01-12T06:56:57.657Z,21.40
2024-01-12T06:57:30.465Z,24.30
2024-01-12T06:58:03.109Z,23.50
2024-01-12T06:58:35.816Z,24.00